sensor_id;sensor_type;location;lat;lon;timestamp;pressure;altitude;pressure_sealevel;temperature;humidity
64402;BME280;50724;42.376;23.768;2023-04-09T00:02:23;93355.28;;;5.41;100.00
64402;BME280;50724;42.376;23.768;2023-04-09T00:05:25;93358.34;;;5.55;100.00
64402;BME280;50724;42.376;23.768;2023-04-09T00:08:25;93361.44;;;5.49;100.00
64402;BME280;50724;42.376;23.768;2023-04-09T00:11:26;93362.97;;;5.52;100.00
64402;BME280;50724;42.376;23.768;2023-04-09T00:14:29;93365.91;;;5.38;100.00
64402;BME280;50724;42.376;23.768;2023-04-09T00:17:29;93364.25;;;5.37;100.00
64402;BME280;50724;42.376;23.768;2023-04-09T00:20:30;93361.97;;;5.43;100.00
64402;BME280;50724;42.376;23.768;2023-04-09T00:23:30;93359.88;;;5.37;100.00
64402;BME280;50724;42.376;23.768;2023-04-09T00:26:31;93364.69;;;5.42;100.00
64402;BME280;50724;42.376;23.768;2023-04-09T00:29:31;93364.03;;;5.49;100.00
64402;BME280;50724;42.376;23.768;2023-04-09T00:32:32;93361.00;;;5.44;100.00
64402;BME280;50724;42.376;23.768;2023-04-09T00:35:32;93367.41;;;5.40;100.00
64402;BME280;50724;42.376;23.768;2023-04-09T00:38:32;93361.94;;;5.34;100.00
64402;BME280;50724;42.376;23.768;2023-04-09T00:41:33;93365.59;;;5.31;100.00
64402;BME280;50724;42.376;23.768;2023-04-09T00:44:33;93362.63;;;5.36;100.00
64402;BME280;50724;42.376;23.768;2023-04-09T00:47:34;93360.94;;;5.55;100.00
64402;BME280;50724;42.376;23.768;2023-04-09T00:50:35;93365.41;;;5.53;100.00
64402;BME280;50724;42.376;23.768;2023-04-09T00:53:35;93362.13;;;5.51;100.00
64402;BME280;50724;42.376;23.768;2023-04-09T00:56:37;93359.88;;;5.37;100.00
64402;BME280;50724;42.376;23.768;2023-04-09T00:59:37;93358.22;;;5.27;100.00
64402;BME280;50724;42.376;23.768;2023-04-09T01:02:40;93363.50;;;5.25;100.00
64402;BME280;50724;42.376;23.768;2023-04-09T01:09:26;93360.34;;;5.22;100.00
64402;BME280;50724;42.376;23.768;2023-04-09T01:15:53;93360.16;;;5.14;100.00
64402;BME280;50724;42.376;23.768;2023-04-09T01:19:00;93354.03;;;5.15;100.00
64402;BME280;50724;42.376;23.768;2023-04-09T01:22:03;93358.84;;;5.19;100.00
64402;BME280;50724;42.376;23.768;2023-04-09T01:28:34;93356.31;;;5.08;100.00
64402;BME280;50724;42.376;23.768;2023-04-09T01:31:37;93358.84;;;4.99;100.00
64402;BME280;50724;42.376;23.768;2023-04-09T01:34:38;93359.56;;;5.01;100.00
64402;BME280;50724;42.376;23.768;2023-04-09T01:37:40;93365.56;;;5.01;100.00
64402;BME280;50724;42.376;23.768;2023-04-09T01:40:41;93365.81;;;4.98;100.00
64402;BME280;50724;42.376;23.768;2023-04-09T01:43:42;93368.63;;;4.95;100.00
64402;BME280;50724;42.376;23.768;2023-04-09T01:46:45;93373.34;;;5.01;100.00
64402;BME280;50724;42.376;23.768;2023-04-09T01:49:46;93375.63;;;4.95;100.00
64402;BME280;50724;42.376;23.768;2023-04-09T01:52:47;93379.97;;;4.94;100.00
64402;BME280;50724;42.376;23.768;2023-04-09T01:55:47;93372.56;;;5.10;100.00
64402;BME280;50724;42.376;23.768;2023-04-09T01:58:48;93379.75;;;5.07;100.00
64402;BME280;50724;42.376;23.768;2023-04-09T02:02:03;93376.69;;;5.13;100.00
64402;BME280;50724;42.376;23.768;2023-04-09T02:05:08;93372.97;;;5.06;100.00
64402;BME280;50724;42.376;23.768;2023-04-09T02:08:12;93376.84;;;5.21;100.00
64402;BME280;50724;42.376;23.768;2023-04-09T02:11:16;93371.44;;;5.03;100.00
64402;BME280;50724;42.376;23.768;2023-04-09T02:14:19;93367.09;;;5.04;100.00
64402;BME280;50724;42.376;23.768;2023-04-09T02:17:20;93370.66;;;5.12;100.00
64402;BME280;50724;42.376;23.768;2023-04-09T02:20:21;93365.19;;;5.06;100.00
64402;BME280;50724;42.376;23.768;2023-04-09T02:23:22;93365.66;;;5.00;100.00
64402;BME280;50724;42.376;23.768;2023-04-09T02:26:22;93368.72;;;4.84;100.00
64402;BME280;50724;42.376;23.768;2023-04-09T02:29:23;93362.91;;;4.71;100.00
64402;BME280;50724;42.376;23.768;2023-04-09T02:32:24;93369.25;;;4.67;100.00
64402;BME280;50724;42.376;23.768;2023-04-09T02:35:24;93366.34;;;4.60;100.00
64402;BME280;50724;42.376;23.768;2023-04-09T02:38:24;93362.56;;;4.64;100.00
64402;BME280;50724;42.376;23.768;2023-04-09T02:41:25;93363.63;;;4.62;100.00
64402;BME280;50724;42.376;23.768;2023-04-09T02:44:26;93367.00;;;4.73;100.00
64402;BME280;50724;42.376;23.768;2023-04-09T02:47:26;93363.63;;;4.62;100.00
64402;BME280;50724;42.376;23.768;2023-04-09T02:50:27;93374.25;;;4.59;100.00
64402;BME280;50724;42.376;23.768;2023-04-09T02:53:27;93372.13;;;4.64;100.00
64402;BME280;50724;42.376;23.768;2023-04-09T02:56:28;93373.97;;;4.73;100.00
64402;BME280;50724;42.376;23.768;2023-04-09T02:59:28;93379.50;;;4.68;100.00
64402;BME280;50724;42.376;23.768;2023-04-09T03:02:28;93375.88;;;4.60;100.00
64402;BME280;50724;42.376;23.768;2023-04-09T03:05:29;93382.56;;;4.73;100.00
64402;BME280;50724;42.376;23.768;2023-04-09T03:08:29;93376.53;;;4.73;100.00
64402;BME280;50724;42.376;23.768;2023-04-09T03:11:30;93382.91;;;4.69;100.00
64402;BME280;50724;42.376;23.768;2023-04-09T03:14:30;93387.66;;;4.64;100.00
64402;BME280;50724;42.376;23.768;2023-04-09T03:17:39;93377.47;;;4.72;100.00
64402;BME280;50724;42.376;23.768;2023-04-09T03:20:40;93376.66;;;4.71;100.00
64402;BME280;50724;42.376;23.768;2023-04-09T03:23:40;93377.03;;;4.67;100.00
64402;BME280;50724;42.376;23.768;2023-04-09T03:26:41;93380.97;;;4.61;100.00
64402;BME280;50724;42.376;23.768;2023-04-09T03:29:41;93381.06;;;4.60;100.00
64402;BME280;50724;42.376;23.768;2023-04-09T03:32:41;93382.88;;;4.48;100.00
64402;BME280;50724;42.376;23.768;2023-04-09T03:35:42;93380.75;;;4.53;100.00
64402;BME280;50724;42.376;23.768;2023-04-09T03:38:42;93385.72;;;4.45;100.00
64402;BME280;50724;42.376;23.768;2023-04-09T03:41:42;93385.47;;;4.48;100.00
64402;BME280;50724;42.376;23.768;2023-04-09T03:44:43;93390.16;;;4.54;100.00
64402;BME280;50724;42.376;23.768;2023-04-09T03:47:43;93389.84;;;4.48;100.00
64402;BME280;50724;42.376;23.768;2023-04-09T03:50:44;93395.34;;;4.43;100.00
64402;BME280;50724;42.376;23.768;2023-04-09T03:53:44;93399.31;;;4.58;100.00
64402;BME280;50724;42.376;23.768;2023-04-09T03:56:44;93402.84;;;4.57;100.00
64402;BME280;50724;42.376;23.768;2023-04-09T03:59:45;93401.19;;;4.36;100.00
64402;BME280;50724;42.376;23.768;2023-04-09T04:02:45;93403.75;;;4.36;100.00
64402;BME280;50724;42.376;23.768;2023-04-09T04:05:46;93402.34;;;4.32;100.00
64402;BME280;50724;42.376;23.768;2023-04-09T04:08:46;93397.25;;;4.41;100.00
64402;BME280;50724;42.376;23.768;2023-04-09T04:11:46;93397.66;;;4.26;100.00
64402;BME280;50724;42.376;23.768;2023-04-09T04:14:47;93387.19;;;4.27;100.00
64402;BME280;50724;42.376;23.768;2023-04-09T04:17:47;93393.31;;;4.15;100.00
64402;BME280;50724;42.376;23.768;2023-04-09T04:20:48;93392.25;;;4.29;100.00
64402;BME280;50724;42.376;23.768;2023-04-09T04:23:48;93393.78;;;4.31;100.00
64402;BME280;50724;42.376;23.768;2023-04-09T04:26:48;93388.38;;;4.23;100.00
64402;BME280;50724;42.376;23.768;2023-04-09T04:29:52;93400.75;;;4.20;100.00
64402;BME280;50724;42.376;23.768;2023-04-09T04:32:52;93393.41;;;4.25;100.00
64402;BME280;50724;42.376;23.768;2023-04-09T04:35:53;93397.66;;;4.26;100.00
64402;BME280;50724;42.376;23.768;2023-04-09T04:38:53;93396.50;;;4.18;100.00
64402;BME280;50724;42.376;23.768;2023-04-09T04:41:54;93399.41;;;4.25;100.00
64402;BME280;50724;42.376;23.768;2023-04-09T04:44:54;93403.06;;;4.23;100.00
64402;BME280;50724;42.376;23.768;2023-04-09T04:47:55;93404.41;;;4.17;100.00
64402;BME280;50724;42.376;23.768;2023-04-09T04:50:57;93407.78;;;4.29;100.00
64402;BME280;50724;42.376;23.768;2023-04-09T04:53:58;93409.44;;;4.18;100.00
64402;BME280;50724;42.376;23.768;2023-04-09T04:56:59;93406.63;;;4.22;100.00
64402;BME280;50724;42.376;23.768;2023-04-09T05:00:00;93404.97;;;4.21;100.00
64402;BME280;50724;42.376;23.768;2023-04-09T05:03:00;93401.81;;;4.17;100.00
64402;BME280;50724;42.376;23.768;2023-04-09T05:06:01;93403.56;;;4.16;100.00
64402;BME280;50724;42.376;23.768;2023-04-09T05:09:02;93407.56;;;4.21;100.00
64402;BME280;50724;42.376;23.768;2023-04-09T05:12:02;93412.00;;;4.30;100.00
64402;BME280;50724;42.376;23.768;2023-04-09T05:15:03;93412.81;;;4.30;100.00
64402;BME280;50724;42.376;23.768;2023-04-09T05:18:04;93411.16;;;4.29;100.00
64402;BME280;50724;42.376;23.768;2023-04-09T05:21:13;93417.63;;;4.35;100.00
64402;BME280;50724;42.376;23.768;2023-04-09T05:24:13;93418.59;;;4.34;100.00
64402;BME280;50724;42.376;23.768;2023-04-09T05:27:14;93408.81;;;4.37;100.00
64402;BME280;50724;42.376;23.768;2023-04-09T05:30:14;93420.94;;;4.37;100.00
64402;BME280;50724;42.376;23.768;2023-04-09T05:33:15;93419.66;;;4.31;100.00
64402;BME280;50724;42.376;23.768;2023-04-09T05:36:17;93416.13;;;4.32;100.00
64402;BME280;50724;42.376;23.768;2023-04-09T05:39:18;93422.25;;;4.31;100.00
64402;BME280;50724;42.376;23.768;2023-04-09T05:42:18;93422.34;;;4.30;100.00
64402;BME280;50724;42.376;23.768;2023-04-09T05:45:19;93423.78;;;4.34;100.00
64402;BME280;50724;42.376;23.768;2023-04-09T05:48:19;93427.78;;;4.27;100.00
64402;BME280;50724;42.376;23.768;2023-04-09T05:51:20;93418.94;;;4.40;100.00
64402;BME280;50724;42.376;23.768;2023-04-09T05:54:20;93415.22;;;4.54;100.00
64402;BME280;50724;42.376;23.768;2023-04-09T05:57:30;93421.19;;;4.65;100.00
64402;BME280;50724;42.376;23.768;2023-04-09T06:00:31;93414.25;;;4.66;100.00
64402;BME280;50724;42.376;23.768;2023-04-09T06:03:31;93419.88;;;4.71;100.00
64402;BME280;50724;42.376;23.768;2023-04-09T06:06:35;93419.63;;;4.74;100.00
64402;BME280;50724;42.376;23.768;2023-04-09T06:09:36;93419.69;;;4.83;100.00
64402;BME280;50724;42.376;23.768;2023-04-09T06:12:37;93424.56;;;4.77;100.00
64402;BME280;50724;42.376;23.768;2023-04-09T06:15:38;93420.47;;;4.95;100.00
64402;BME280;50724;42.376;23.768;2023-04-09T06:18:41;93429.00;;;4.86;100.00
64402;BME280;50724;42.376;23.768;2023-04-09T06:29:35;93435.47;;;5.12;100.00
64402;BME280;50724;42.376;23.768;2023-04-09T06:32:36;93437.50;;;5.09;100.00
64402;BME280;50724;42.376;23.768;2023-04-09T06:35:36;93438.59;;;5.06;100.00
64402;BME280;50724;42.376;23.768;2023-04-09T06:38:37;93438.53;;;5.17;100.00
64402;BME280;50724;42.376;23.768;2023-04-09T06:41:37;93433.41;;;5.27;100.00
64402;BME280;50724;42.376;23.768;2023-04-09T06:44:39;93445.03;;;5.32;100.00
64402;BME280;50724;42.376;23.768;2023-04-09T06:47:40;93452.94;;;5.31;100.00
64402;BME280;50724;42.376;23.768;2023-04-09T06:50:40;93443.09;;;5.25;100.00
64402;BME280;50724;42.376;23.768;2023-04-09T06:53:45;93447.63;;;5.32;100.00
64402;BME280;50724;42.376;23.768;2023-04-09T06:56:47;93454.13;;;5.68;100.00
64402;BME280;50724;42.376;23.768;2023-04-09T06:59:47;93453.75;;;5.52;100.00
64402;BME280;50724;42.376;23.768;2023-04-09T07:02:48;93448.94;;;5.68;100.00
64402;BME280;50724;42.376;23.768;2023-04-09T07:05:48;93445.84;;;5.74;100.00
64402;BME280;50724;42.376;23.768;2023-04-09T07:08:49;93447.91;;;5.80;100.00
64402;BME280;50724;42.376;23.768;2023-04-09T07:11:50;93444.66;;;5.57;99.10
64402;BME280;50724;42.376;23.768;2023-04-09T07:14:50;93447.63;;;5.53;99.43
64402;BME280;50724;42.376;23.768;2023-04-09T07:17:51;93446.66;;;5.54;100.00
64402;BME280;50724;42.376;23.768;2023-04-09T07:20:51;93453.38;;;5.56;99.96
64402;BME280;50724;42.376;23.768;2023-04-09T07:23:53;93457.41;;;5.70;100.00
64402;BME280;50724;42.376;23.768;2023-04-09T07:26:53;93458.81;;;5.74;100.00
64402;BME280;50724;42.376;23.768;2023-04-09T07:29:55;93454.69;;;5.72;100.00
64402;BME280;50724;42.376;23.768;2023-04-09T07:32:56;93459.94;;;5.81;100.00
64402;BME280;50724;42.376;23.768;2023-04-09T07:35:56;93461.91;;;5.89;98.67
64402;BME280;50724;42.376;23.768;2023-04-09T07:38:56;93463.47;;;6.01;96.79
64402;BME280;50724;42.376;23.768;2023-04-09T07:41:57;93467.19;;;6.08;94.38
64402;BME280;50724;42.376;23.768;2023-04-09T07:44:59;93463.47;;;6.01;94.05
64402;BME280;50724;42.376;23.768;2023-04-09T07:48:03;93459.88;;;5.92;95.12
64402;BME280;50724;42.376;23.768;2023-04-09T07:51:03;93466.19;;;5.99;95.92
64402;BME280;50724;42.376;23.768;2023-04-09T07:54:05;93467.75;;;6.11;95.23
64402;BME280;50724;42.376;23.768;2023-04-09T07:57:06;93470.91;;;6.15;94.92
64402;BME280;50724;42.376;23.768;2023-04-09T08:00:07;93462.53;;;6.42;93.53
64402;BME280;50724;42.376;23.768;2023-04-09T08:03:07;93466.28;;;6.68;91.58
64402;BME280;50724;42.376;23.768;2023-04-09T08:06:08;93463.97;;;6.93;91.04
64402;BME280;50724;42.376;23.768;2023-04-09T08:09:09;93462.06;;;7.05;89.74
64402;BME280;50724;42.376;23.768;2023-04-09T08:12:13;93464.53;;;7.16;87.61
64402;BME280;50724;42.376;23.768;2023-04-09T08:15:13;93477.38;;;7.46;87.87
64402;BME280;50724;42.376;23.768;2023-04-09T08:18:14;93468.03;;;7.82;85.51
64402;BME280;50724;42.376;23.768;2023-04-09T08:21:16;93469.97;;;8.17;85.35
64402;BME280;50724;42.376;23.768;2023-04-09T08:24:17;93460.75;;;8.32;83.28
64402;BME280;50724;42.376;23.768;2023-04-09T08:27:18;93468.84;;;8.29;80.91
64402;BME280;50724;42.376;23.768;2023-04-09T08:30:18;93466.88;;;8.41;80.99
64402;BME280;50724;42.376;23.768;2023-04-09T08:33:20;93461.16;;;8.64;80.82
64402;BME280;50724;42.376;23.768;2023-04-09T08:36:20;93458.94;;;8.69;80.05
64402;BME280;50724;42.376;23.768;2023-04-09T08:39:21;93458.66;;;8.90;79.87
64402;BME280;50724;42.376;23.768;2023-04-09T08:42:23;93452.47;;;9.26;79.63
64402;BME280;50724;42.376;23.768;2023-04-09T08:45:24;93446.00;;;9.99;77.84
64402;BME280;50724;42.376;23.768;2023-04-09T08:48:25;93448.97;;;9.79;78.70
64402;BME280;50724;42.376;23.768;2023-04-09T08:51:25;93445.84;;;9.49;82.56
64402;BME280;50724;42.376;23.768;2023-04-09T08:54:27;93446.28;;;9.88;81.75
64402;BME280;50724;42.376;23.768;2023-04-09T08:57:28;93450.75;;;10.21;80.67
64402;BME280;50724;42.376;23.768;2023-04-09T09:00:28;93447.50;;;10.27;79.39
64402;BME280;50724;42.376;23.768;2023-04-09T09:03:28;93451.88;;;10.19;77.16
64402;BME280;50724;42.376;23.768;2023-04-09T09:06:31;93443.47;;;10.07;79.02
64402;BME280;50724;42.376;23.768;2023-04-09T09:09:58;93442.28;;;10.27;77.34
64402;BME280;50724;42.376;23.768;2023-04-09T09:13:27;93445.06;;;10.08;79.72
64402;BME280;50724;42.376;23.768;2023-04-09T09:16:35;93448.75;;;10.15;77.65
64402;BME280;50724;42.376;23.768;2023-04-09T09:19:50;93443.94;;;10.36;75.88
64402;BME280;50724;42.376;23.768;2023-04-09T09:22:57;93444.13;;;10.09;77.36
64402;BME280;50724;42.376;23.768;2023-04-09T09:26:13;93438.81;;;10.19;79.18
64402;BME280;50724;42.376;23.768;2023-04-09T09:29:13;93436.66;;;10.48;79.31
64402;BME280;50724;42.376;23.768;2023-04-09T09:32:14;93437.78;;;10.95;74.99
64402;BME280;50724;42.376;23.768;2023-04-09T09:35:15;93434.91;;;11.31;75.10
64402;BME280;50724;42.376;23.768;2023-04-09T09:38:16;93436.41;;;11.41;74.55
64402;BME280;50724;42.376;23.768;2023-04-09T09:41:17;93430.34;;;11.49;71.92
64402;BME280;50724;42.376;23.768;2023-04-09T09:44:32;93431.50;;;11.54;72.06
64402;BME280;50724;42.376;23.768;2023-04-09T09:47:33;93430.00;;;11.36;72.54
64402;BME280;50724;42.376;23.768;2023-04-09T09:50:34;93426.84;;;10.92;74.40
64402;BME280;50724;42.376;23.768;2023-04-09T09:53:36;93419.91;;;10.75;77.13
64402;BME280;50724;42.376;23.768;2023-04-09T09:56:38;93422.09;;;10.87;77.66
64402;BME280;50724;42.376;23.768;2023-04-09T10:00:09;93422.78;;;11.05;74.81
64402;BME280;50724;42.376;23.768;2023-04-09T10:03:14;93420.44;;;10.86;76.58
64402;BME280;50724;42.376;23.768;2023-04-09T10:30:06;93400.72;;;11.72;68.45
64402;BME280;50724;42.376;23.768;2023-04-09T10:33:16;93400.03;;;11.30;71.62
64402;BME280;50724;42.376;23.768;2023-04-09T10:36:26;93403.97;;;11.26;71.83
64402;BME280;50724;42.376;23.768;2023-04-09T10:39:31;93396.28;;;11.17;71.84
64402;BME280;50724;42.376;23.768;2023-04-09T10:42:34;93399.91;;;11.32;72.24
64402;BME280;50724;42.376;23.768;2023-04-09T10:45:40;93393.66;;;11.17;71.04
64402;BME280;50724;42.376;23.768;2023-04-09T10:48:44;93395.16;;;11.27;70.22
64402;BME280;50724;42.376;23.768;2023-04-09T10:51:54;93393.84;;;11.15;70.09
64402;BME280;50724;42.376;23.768;2023-04-09T10:55:00;93391.69;;;11.11;70.93
64402;BME280;50724;42.376;23.768;2023-04-09T10:58:04;93389.59;;;11.22;71.98
64402;BME280;50724;42.376;23.768;2023-04-09T11:01:05;93396.28;;;11.09;70.77
64402;BME280;50724;42.376;23.768;2023-04-09T11:04:15;93388.03;;;10.71;71.56
64402;BME280;50724;42.376;23.768;2023-04-09T11:07:21;93393.22;;;10.63;72.52
64402;BME280;50724;42.376;23.768;2023-04-09T11:10:24;93381.53;;;10.33;73.01
64402;BME280;50724;42.376;23.768;2023-04-09T11:13:29;93388.88;;;10.30;73.89
64402;BME280;50724;42.376;23.768;2023-04-09T11:16:31;93387.56;;;10.84;72.98
64402;BME280;50724;42.376;23.768;2023-04-09T11:19:35;93377.09;;;10.76;70.62
64402;BME280;50724;42.376;23.768;2023-04-09T11:22:44;93375.28;;;10.76;72.43
64402;BME280;50724;42.376;23.768;2023-04-09T11:25:48;93384.50;;;11.13;69.92
64402;BME280;50724;42.376;23.768;2023-04-09T11:28:48;93381.97;;;10.79;70.30
64402;BME280;50724;42.376;23.768;2023-04-09T11:31:49;93384.50;;;10.96;69.68
64402;BME280;50724;42.376;23.768;2023-04-09T11:34:51;93383.34;;;11.07;69.03
64402;BME280;50724;42.376;23.768;2023-04-09T11:37:52;93376.97;;;11.01;69.81
64402;BME280;50724;42.376;23.768;2023-04-09T11:40:56;93372.22;;;10.97;70.05
64402;BME280;50724;42.376;23.768;2023-04-09T11:43:56;93377.31;;;11.15;68.62
64402;BME280;50724;42.376;23.768;2023-04-09T11:46:58;93374.19;;;11.19;68.58
64402;BME280;50724;42.376;23.768;2023-04-09T11:49:59;93374.69;;;11.39;66.24
64402;BME280;50724;42.376;23.768;2023-04-09T11:53:19;93371.09;;;11.32;66.52
64402;BME280;50724;42.376;23.768;2023-04-09T11:56:20;93365.03;;;11.55;66.16
64402;BME280;50724;42.376;23.768;2023-04-09T11:59:20;93364.38;;;11.29;66.96
64402;BME280;50724;42.376;23.768;2023-04-09T12:02:22;93363.06;;;11.57;64.78
64402;BME280;50724;42.376;23.768;2023-04-09T12:05:24;93359.63;;;11.65;64.66
64402;BME280;50724;42.376;23.768;2023-04-09T12:08:26;93366.69;;;11.32;64.69
64402;BME280;50724;42.376;23.768;2023-04-09T12:11:28;93367.47;;;11.33;65.03
64402;BME280;50724;42.376;23.768;2023-04-09T12:14:29;93367.81;;;11.05;64.87
64402;BME280;50724;42.376;23.768;2023-04-09T12:17:30;93359.16;;;11.13;64.58
64402;BME280;50724;42.376;23.768;2023-04-09T12:20:38;93366.50;;;11.10;63.92
64402;BME280;50724;42.376;23.768;2023-04-09T12:23:39;93365.94;;;10.74;64.99
64402;BME280;50724;42.376;23.768;2023-04-09T12:26:39;93364.94;;;10.59;65.84
64402;BME280;50724;42.376;23.768;2023-04-09T12:29:40;93359.94;;;9.98;66.05
64402;BME280;50724;42.376;23.768;2023-04-09T12:32:40;93350.44;;;9.89;66.36
64402;BME280;50724;42.376;23.768;2023-04-09T12:35:43;93361.56;;;9.99;66.32
64402;BME280;50724;42.376;23.768;2023-04-09T12:38:44;93359.28;;;10.21;65.52
64402;BME280;50724;42.376;23.768;2023-04-09T12:41:44;93350.13;;;10.17;65.17
64402;BME280;50724;42.376;23.768;2023-04-09T12:44:44;93345.91;;;9.99;65.06
64402;BME280;50724;42.376;23.768;2023-04-09T12:47:53;93346.72;;;9.99;65.97
64402;BME280;50724;42.376;23.768;2023-04-09T12:50:53;93349.00;;;10.28;63.88
64402;BME280;50724;42.376;23.768;2023-04-09T12:53:54;93346.09;;;10.39;64.55
64402;BME280;50724;42.376;23.768;2023-04-09T12:56:55;93336.09;;;10.26;61.09
64402;BME280;50724;42.376;23.768;2023-04-09T12:59:55;93342.50;;;9.98;59.57
64402;BME280;50724;42.376;23.768;2023-04-09T13:02:56;93342.03;;;10.11;59.71
64402;BME280;50724;42.376;23.768;2023-04-09T13:05:56;93340.81;;;10.23;60.08
64402;BME280;50724;42.376;23.768;2023-04-09T13:08:56;93336.66;;;10.54;57.71
64402;BME280;50724;42.376;23.768;2023-04-09T13:11:57;93335.34;;;10.50;57.78
64402;BME280;50724;42.376;23.768;2023-04-09T13:14:57;93337.63;;;10.03;58.27
64402;BME280;50724;42.376;23.768;2023-04-09T13:17:58;93334.91;;;10.21;57.07
64402;BME280;50724;42.376;23.768;2023-04-09T13:20:58;93330.16;;;10.16;58.51
64402;BME280;50724;42.376;23.768;2023-04-09T13:23:59;93330.88;;;10.26;57.85
64402;BME280;50724;42.376;23.768;2023-04-09T13:26:59;93332.66;;;10.34;58.38
64402;BME280;50724;42.376;23.768;2023-04-09T13:30:00;93324.88;;;10.50;57.64
64402;BME280;50724;42.376;23.768;2023-04-09T13:33:00;93324.22;;;10.56;58.85
64402;BME280;50724;42.376;23.768;2023-04-09T13:36:01;93318.66;;;10.51;57.95
64402;BME280;50724;42.376;23.768;2023-04-09T13:39:01;93319.69;;;10.66;58.38
64402;BME280;50724;42.376;23.768;2023-04-09T13:42:05;93313.25;;;10.53;60.21
64402;BME280;50724;42.376;23.768;2023-04-09T13:45:05;93315.22;;;10.51;60.35
64402;BME280;50724;42.376;23.768;2023-04-09T13:48:06;93309.13;;;10.34;59.70
64402;BME280;50724;42.376;23.768;2023-04-09T13:51:15;93303.44;;;10.38;61.13
64402;BME280;50724;42.376;23.768;2023-04-09T13:54:16;93309.63;;;10.29;62.38
64402;BME280;50724;42.376;23.768;2023-04-09T13:57:20;93302.25;;;10.17;62.76
64402;BME280;50724;42.376;23.768;2023-04-09T14:00:20;93308.97;;;10.19;63.16
64402;BME280;50724;42.376;23.768;2023-04-09T14:03:20;93302.28;;;9.91;63.13
64402;BME280;50724;42.376;23.768;2023-04-09T14:06:21;93311.63;;;10.02;62.83
64402;BME280;50724;42.376;23.768;2023-04-09T14:09:22;93305.56;;;9.93;63.63
64402;BME280;50724;42.376;23.768;2023-04-09T14:12:22;93304.13;;;10.07;63.79
64402;BME280;50724;42.376;23.768;2023-04-09T14:15:22;93307.25;;;10.10;65.20
64402;BME280;50724;42.376;23.768;2023-04-09T14:18:23;93300.78;;;10.22;63.16
64402;BME280;50724;42.376;23.768;2023-04-09T14:21:24;93304.91;;;9.99;63.99
64402;BME280;50724;42.376;23.768;2023-04-09T14:24:25;93302.13;;;9.93;64.79
64402;BME280;50724;42.376;23.768;2023-04-09T14:27:26;93296.78;;;10.02;64.20
64402;BME280;50724;42.376;23.768;2023-04-09T14:30:26;93291.22;;;10.05;64.37
64402;BME280;50724;42.376;23.768;2023-04-09T14:33:26;93295.69;;;10.13;64.07
64402;BME280;50724;42.376;23.768;2023-04-09T14:36:27;93291.38;;;10.04;63.64
64402;BME280;50724;42.376;23.768;2023-04-09T14:39:27;93287.97;;;10.03;63.91
64402;BME280;50724;42.376;23.768;2023-04-09T14:42:28;93288.28;;;10.08;63.61
64402;BME280;50724;42.376;23.768;2023-04-09T14:45:28;93285.41;;;10.11;63.17
64402;BME280;50724;42.376;23.768;2023-04-09T14:48:28;93280.06;;;10.29;62.71
64402;BME280;50724;42.376;23.768;2023-04-09T14:51:29;93286.59;;;10.41;62.13
64402;BME280;50724;42.376;23.768;2023-04-09T14:54:29;93285.94;;;10.39;62.54
64402;BME280;50724;42.376;23.768;2023-04-09T14:57:31;93282.06;;;10.43;62.70
64402;BME280;50724;42.376;23.768;2023-04-09T15:00:31;93278.13;;;10.47;61.81
64402;BME280;50724;42.376;23.768;2023-04-09T15:03:32;93275.72;;;10.62;61.50
64402;BME280;50724;42.376;23.768;2023-04-09T15:06:32;93262.63;;;10.70;60.85
64402;BME280;50724;42.376;23.768;2023-04-09T15:09:33;93259.69;;;10.57;59.85
64402;BME280;50724;42.376;23.768;2023-04-09T15:12:33;93262.25;;;10.32;60.10
64402;BME280;50724;42.376;23.768;2023-04-09T15:15:34;93259.47;;;10.34;60.84
64402;BME280;50724;42.376;23.768;2023-04-09T15:18:34;93258.00;;;10.40;59.90
64402;BME280;50724;42.376;23.768;2023-04-09T15:21:36;93255.84;;;10.19;61.21
64402;BME280;50724;42.376;23.768;2023-04-09T15:24:36;93261.09;;;10.27;60.08
64402;BME280;50724;42.376;23.768;2023-04-09T15:27:37;93258.84;;;10.40;58.90
64402;BME280;50724;42.376;23.768;2023-04-09T15:30:37;93254.06;;;10.27;59.56
64402;BME280;50724;42.376;23.768;2023-04-09T15:33:41;93256.22;;;10.40;59.46
64402;BME280;50724;42.376;23.768;2023-04-09T15:36:41;93248.50;;;10.14;59.86
64402;BME280;50724;42.376;23.768;2023-04-09T15:39:41;93244.22;;;10.13;58.76
64402;BME280;50724;42.376;23.768;2023-04-09T15:42:42;93240.44;;;10.08;58.31
64402;BME280;50724;42.376;23.768;2023-04-09T15:45:43;93241.38;;;9.91;58.72
64402;BME280;50724;42.376;23.768;2023-04-09T15:48:44;93237.81;;;9.58;59.13
64402;BME280;50724;42.376;23.768;2023-04-09T15:51:44;93234.94;;;9.69;58.34
64402;BME280;50724;42.376;23.768;2023-04-09T15:54:45;93230.72;;;9.76;59.71
64402;BME280;50724;42.376;23.768;2023-04-09T15:57:45;93234.97;;;9.85;58.84
64402;BME280;50724;42.376;23.768;2023-04-09T16:00:46;93231.69;;;9.75;58.07
64402;BME280;50724;42.376;23.768;2023-04-09T16:03:49;93231.34;;;9.78;57.52
64402;BME280;50724;42.376;23.768;2023-04-09T16:06:51;93232.84;;;9.39;58.34
64402;BME280;50724;42.376;23.768;2023-04-09T16:09:53;93230.09;;;9.48;57.90
64402;BME280;50724;42.376;23.768;2023-04-09T16:12:53;93231.94;;;9.22;59.53
64402;BME280;50724;42.376;23.768;2023-04-09T16:15:54;93225.84;;;9.14;58.30
64402;BME280;50724;42.376;23.768;2023-04-09T16:18:55;93228.47;;;9.14;59.58
64402;BME280;50724;42.376;23.768;2023-04-09T16:21:55;93218.53;;;8.91;59.68
64402;BME280;50724;42.376;23.768;2023-04-09T16:24:56;93221.00;;;8.93;59.76
64402;BME280;50724;42.376;23.768;2023-04-09T16:28:02;93223.81;;;8.99;59.12
64402;BME280;50724;42.376;23.768;2023-04-09T16:31:03;93216.44;;;8.95;61.63
64402;BME280;50724;42.376;23.768;2023-04-09T16:34:03;93222.34;;;8.79;60.84
64402;BME280;50724;42.376;23.768;2023-04-09T16:37:04;93225.88;;;8.70;61.82